Snoqualmie River: Snoqualmie Falls station

back to: Snoqualmie river
Snoqualmie Falls station Summary - (NOAA Hydrograph: SQUW1)
flood stage: 12.88 ft
Latest reading:
Fri10/20 02:30 am 9.78 ft 9966 cfs (-724/hr)
Past 24hr max:
Thu10/19 10:45 pm 10.05 ft 10679 cfs
Forecasted crests: (published Thu 10/19/17 06:20 pm)
Sun10/22 11:00 am 15.5 ft 31770 cfs

Snoqualmie Falls station Details

Latest Readings

Last 100 Readings:
Fri10/20 02:30 am 9.78 ft 9966 cfs
Fri10/20 02:15 am 9.85 ft 10147 cfs
Fri10/20 02:00 am 9.91 ft 10306 cfs
Fri10/20 01:45 am 9.91 ft 10306 cfs
Fri10/20 01:30 am 9.95 ft 10413 cfs
Fri10/20 01:15 am 9.96 ft 10439 cfs
Fri10/20 01:00 am 9.94 ft 10386 cfs
Fri10/20 12:45 am 10.02 ft 10599 cfs
Fri10/20 12:30 am 9.98 ft 10493 cfs
Fri10/20 12:15 am 10.0 ft 10546 cfs
Fri10/20 12:00 am 9.95 ft 10413 cfs
Thu10/19 11:45 pm 10.01 ft 10573 cfs
Thu10/19 11:30 pm 10.05 ft 10679 cfs
Thu10/19 11:15 pm 10.05 ft 10679 cfs
Thu10/19 11:00 pm 10.05 ft 10679 cfs
Thu10/19 10:45 pm 10.05 ft 10679 cfs
Thu10/19 10:30 pm 10.04 ft 10652 cfs
Thu10/19 10:15 pm 10.03 ft 10626 cfs
Thu10/19 10:00 pm 10.03 ft 10626 cfs
Thu10/19 09:45 pm 10.04 ft 10652 cfs
Thu10/19 09:30 pm 10.04 ft 10652 cfs
Thu10/19 09:15 pm 10.01 ft 10573 cfs
Thu10/19 09:00 pm 9.97 ft 10466 cfs
Thu10/19 08:45 pm 9.95 ft 10413 cfs
Thu10/19 08:30 pm 9.91 ft 10306 cfs
Thu10/19 08:15 pm 9.93 ft 10359 cfs
Thu10/19 08:00 pm 9.87 ft 10200 cfs
Thu10/19 07:45 pm 9.83 ft 10096 cfs
Thu10/19 07:30 pm 9.79 ft 9992 cfs
Thu10/19 07:15 pm 9.76 ft 9915 cfs
Thu10/19 07:00 pm 9.75 ft 9889 cfs
Thu10/19 06:45 pm 9.7 ft 9760 cfs
Thu10/19 06:30 pm 9.7 ft 9760 cfs
Thu10/19 06:15 pm 9.69 ft 9734 cfs
Thu10/19 06:00 pm 9.67 ft 9682 cfs
Thu10/19 05:45 pm 9.65 ft 9631 cfs
Thu10/19 05:30 pm 9.63 ft 9580 cfs
Thu10/19 05:15 pm 9.64 ft 9605 cfs
Thu10/19 05:00 pm 9.63 ft 9580 cfs
Thu10/19 04:45 pm 9.63 ft 9580 cfs
Thu10/19 04:30 pm 9.59 ft 9480 cfs
Thu10/19 04:15 pm 9.63 ft 9580 cfs
Thu10/19 04:00 pm 9.63 ft 9580 cfs
Thu10/19 03:45 pm 9.63 ft 9580 cfs
Thu10/19 03:30 pm 9.63 ft 9580 cfs
Thu10/19 03:15 pm 9.62 ft 9555 cfs
Thu10/19 03:00 pm 9.65 ft 9631 cfs
Thu10/19 02:45 pm 9.67 ft 9682 cfs
Thu10/19 02:30 pm 9.7 ft 9760 cfs
Thu10/19 02:15 pm 9.71 ft 9786 cfs
Thu10/19 02:00 pm 9.73 ft 9837 cfs
Thu10/19 01:45 pm 9.74 ft 9863 cfs
Thu10/19 01:30 pm 9.74 ft 9863 cfs
Thu10/19 01:15 pm 9.78 ft 9966 cfs
Thu10/19 01:00 pm 9.78 ft 9966 cfs
Thu10/19 12:45 pm 9.81 ft 10044 cfs
Thu10/19 11:00 am 9.54 ft 9356 cfs
Thu10/19 10:45 am 9.55 ft 9381 cfs
Thu10/19 10:30 am 9.59 ft 9480 cfs
Thu10/19 10:15 am 9.54 ft 9356 cfs
Thu10/19 10:00 am 9.53 ft 9331 cfs
Thu10/19 09:45 am 9.48 ft 9206 cfs
Thu10/19 09:30 am 9.48 ft 9206 cfs
Thu10/19 09:15 am 9.45 ft 9132 cfs
Thu10/19 09:00 am 9.41 ft 9033 cfs
Thu10/19 08:45 am 9.41 ft 9033 cfs
Thu10/19 08:30 am 9.36 ft 8912 cfs
Thu10/19 08:15 am 9.29 ft 8744 cfs
Thu10/19 08:00 am 9.21 ft 8551 cfs
Thu10/19 07:45 am 9.1 ft 8295 cfs
Thu10/19 07:30 am 9.05 ft 8179 cfs
Thu10/19 07:15 am 8.94 ft 7926 cfs
Thu10/19 07:00 am 8.82 ft 7657 cfs
Thu10/19 06:45 am 8.68 ft 7351 cfs
Thu10/19 06:30 am 8.52 ft 7007 cfs
Thu10/19 06:15 am 8.36 ft 6675 cfs
Thu10/19 06:00 am 8.18 ft 6313 cfs
Thu10/19 05:45 am 8.02 ft 6001 cfs
Thu10/19 05:30 am 7.85 ft 5677 cfs
Thu10/19 05:15 am 7.67 ft 5347 cfs
Thu10/19 05:00 am 7.47 ft 4995 cfs
Thu10/19 04:45 am 7.29 ft 4690 cfs
Thu10/19 04:30 am 7.07 ft 4332 cfs
Thu10/19 04:15 am 6.85 ft 3990 cfs
Thu10/19 04:00 am 6.67 ft 3723 cfs
Thu10/19 03:45 am 6.53 ft 3522 cfs
Thu10/19 03:30 am 6.4 ft 3342 cfs
Thu10/19 03:15 am 6.33 ft 3246 cfs
Thu10/19 03:00 am 6.29 ft 3193 cfs
Thu10/19 02:45 am 6.25 ft 3141 cfs
Thu10/19 02:30 am 6.23 ft 3115 cfs
Thu10/19 02:15 am 6.2 ft 3075 cfs
Thu10/19 02:00 am 6.2 ft 3075 cfs
Thu10/19 01:45 am 6.18 ft 3049 cfs
Thu10/19 01:30 am 6.13 ft 2983 cfs
Thu10/19 01:15 am 6.15 ft 3009 cfs
Thu10/19 01:00 am 6.09 ft 2933 cfs
Thu10/19 12:45 am 6.09 ft 2933 cfs
Thu10/19 12:30 am 6.09 ft 2933 cfs
Thu10/19 12:15 am 6.05 ft 2883 cfs

Latest Forecasts

Currently Forecasted Readings:
Thu10/19 11:00 pm 9.81 ft 10036 cfs
Fri10/20 05:00 am 9.69 ft 9729 cfs
Fri10/20 11:00 am 9.1 ft 8292 cfs
Fri10/20 05:00 pm 8.66 ft 7299 cfs
Fri10/20 11:00 pm 8.34 ft 6640 cfs
Sat10/21 05:00 am 7.91 ft 5790 cfs
Sat10/21 11:00 am 7.43 ft 4927 cfs
Sat10/21 05:00 pm 7.68 ft 5371 cfs
Sat10/21 11:00 pm 10.99 ft 13398 cfs
Sun10/22 05:00 am 14.64 ft 27557 cfs
Sun10/22 11:00 am 15.5 ft 31770 cfs
Sun10/22 05:00 pm 12.81 ft 19707 cfs
Sun10/22 11:00 pm 11.03 ft 13510 cfs
Mon10/23 05:00 am 9.9 ft 10272 cfs
Mon10/23 11:00 am 8.92 ft 7882 cfs
Mon10/23 05:00 pm 8.13 ft 6220 cfs
Mon10/23 11:00 pm 7.51 ft 5069 cfs
Tue10/24 05:00 am 7.05 ft 4299 cfs
Tue10/24 11:00 am 6.71 ft 3781 cfs
Tue10/24 05:00 pm 6.46 ft 3425 cfs
Tue10/24 11:00 pm 6.26 ft 3149 cfs
Wed10/25 05:00 am 6.08 ft 2924 cfs
Wed10/25 11:00 am 5.94 ft 2745 cfs
Wed10/25 05:00 pm 5.8 ft 2582 cfs
Wed10/25 11:00 pm 5.66 ft 2420 cfs
Thu10/26 05:00 am 5.54 ft 2284 cfs
Thu10/26 11:00 am 5.43 ft 2163 cfs
Thu10/26 05:00 pm 5.32 ft 2054 cfs
Thu10/26 11:00 pm 5.22 ft 1953 cfs
Fri10/27 05:00 am 5.13 ft 1863 cfs
Fri10/27 11:00 am 5.04 ft 1777 cfs
Fri10/27 05:00 pm 4.96 ft 1701 cfs
Fri10/27 11:00 pm 4.89 ft 1641 cfs
Sat10/28 05:00 am 4.83 ft 1581 cfs
Sat10/28 11:00 am 4.75 ft 1516 cfs
Sat10/28 05:00 pm 4.7 ft 1472 cfs
Sat10/28 11:00 pm 4.87 ft 1624 cfs
Sun10/29 05:00 am 5.23 ft 1955 cfs

Snoqualmie River flood gauge data supplied by the
National Weather Service Northwest River Forecast Center.

Sign up for Floodzilla alerts.